Time;durP1;ratioP1;P1;durP2;ratioP2;P2;SDS_P1;SDS_P2;PMS_P1;PMS_P2;Temp;Humidity;BMP_temperature;BMP_pressure;BME280_temperature;BME280_humidity;BME280_pressure;Samples;Min_cycle;Max_cycle;Signal;HPM_P1;HPM_P2
2022/01/14 00:00:01;;;;;;;3.43;2.20;;;26.60;99.90;;;;;;4977296;28;20226;-73
2022/01/14 00:02:28;;;;;;;3.87;2.60;;;26.90;99.90;;;;;;4995077;28;20179;-75
2022/01/14 00:04:56;;;;;;;5.40;2.70;;;27.30;99.90;;;;;;4994911;28;20691;-73
2022/01/14 00:07:26;;;;;;;5.60;2.40;;;27.50;99.90;;;;;;4995010;28;20182;-74
2022/01/14 00:09:54;;;;;;;9.10;3.57;;;28.10;99.90;;;;;;4977595;28;20201;-73
2022/01/14 00:12:27;;;;;;;4.17;2.63;;;28.60;99.90;;;;;;4977313;28;20281;-73
2022/01/14 00:15:22;;;;;;;7.47;3.57;;;28.10;99.90;;;;;;4994294;28;20194;-73
2022/01/14 00:17:45;;;;;;;6.90;2.90;;;27.60;99.90;;;;;;4993854;28;20686;-73
2022/01/14 00:20:13;;;;;;;6.43;3.37;;;27.80;99.90;;;;;;4994512;28;20643;-75
2022/01/14 00:22:40;;;;;;;6.00;3.20;;;27.40;99.90;;;;;;4994701;28;20265;-72
2022/01/14 00:33:24;;;;;;;5.07;3.50;;;28.70;99.90;;;;;;4994766;28;20177;-73
2022/01/14 00:35:52;;;;;;;5.83;3.40;;;29.20;99.90;;;;;;4994437;28;20190;-74
2022/01/14 00:38:20;;;;;;;6.47;3.47;;;28.70;99.90;;;;;;4955799;28;20227;-75
2022/01/14 00:40:48;;;;;;;5.13;3.50;;;29.50;99.90;;;;;;4955724;28;20182;-75
2022/01/14 00:43:16;;;;;;;8.53;3.97;;;30.00;99.90;;;;;;4955548;28;20175;-73
2022/01/14 00:45:44;;;;;;;6.70;3.50;;;29.90;99.90;;;;;;4955342;28;20192;-76
2022/01/14 00:48:11;;;;;;;6.67;4.00;;;29.10;99.90;;;;;;4955619;28;20180;-76
2022/01/14 00:50:44;;;;;;;4.90;3.97;;;29.10;99.90;;;;;;4955491;28;20262;-74
2022/01/14 00:53:12;;;;;;;6.87;3.30;;;29.00;99.90;;;;;;4955257;28;20267;-75
2022/01/14 00:55:48;;;;;;;6.27;3.80;;;29.10;99.90;;;;;;4955050;28;20259;-75
2022/01/14 01:01:01;;;;;;;7.37;3.93;;;29.10;99.90;;;;;;4955594;29;20318;-77
2022/01/14 01:03:29;;;;;;;5.13;3.20;;;29.60;99.90;;;;;;4936160;29;20331;-78
2022/01/14 01:05:57;;;;;;;10.07;3.37;;;29.40;99.90;;;;;;4953300;29;20552;-75
2022/01/14 01:08:27;;;;;;;10.23;4.00;;;29.30;99.90;;;;;;4955021;28;20269;-77
2022/01/14 01:10:55;;;;;;;5.23;3.13;;;29.40;99.90;;;;;;4953942;29;20839;-78
2022/01/14 01:13:33;;;;;;;9.57;3.67;;;29.50;99.90;;;;;;4953824;29;20187;-77
2022/01/14 01:16:01;;;;;;;4.43;3.10;;;30.10;99.90;;;;;;4954254;28;20660;-75
2022/01/14 01:18:29;;;;;;;5.03;2.93;;;30.00;99.90;;;;;;4954683;28;20270;-78
2022/01/14 01:20:57;;;;;;;6.90;3.40;;;29.70;99.90;;;;;;4954236;28;20180;-77
2022/01/14 01:23:25;;;;;;;5.63;4.30;;;29.30;99.90;;;;;;4954502;28;20192;-78
2022/01/14 01:25:59;;;;;;;4.67;2.80;;;29.70;99.90;;;;;;4954684;29;20203;-77
2022/01/14 01:28:28;;;;;;;8.10;3.60;;;29.90;99.90;;;;;;4953561;28;20195;-78
2022/01/14 01:33:23;;;;;;;4.90;4.20;;;30.90;99.90;;;;;;4954714;28;20192;-76
2022/01/14 01:35:51;;;;;;;6.10;3.90;;;31.20;99.90;;;;;;4954413;28;20214;-75
2022/01/14 01:38:18;;;;;;;7.23;3.60;;;31.60;99.90;;;;;;4972217;28;20227;-76
2022/01/14 01:40:48;;;;;;;5.47;3.53;;;32.10;99.90;;;;;;4973922;28;20179;-75
2022/01/14 01:43:16;;;;;;;4.80;3.38;;;31.60;99.90;;;;;;4973679;28;20177;-76
2022/01/14 01:45:49;;;;;;;4.17;3.03;;;31.70;99.90;;;;;;4973259;28;20187;-76
2022/01/14 01:48:18;;;;;;;6.60;3.60;;;32.10;99.90;;;;;;4973699;28;20180;-75
2022/01/14 01:50:45;;;;;;;7.73;4.90;;;31.70;99.90;;;;;;4972518;28;20180;-76
2022/01/14 01:53:13;;;;;;;4.65;3.55;;;31.80;99.90;;;;;;4972302;28;20179;-76
2022/01/14 01:55:41;;;;;;;6.32;3.20;;;32.10;99.90;;;;;;4973768;28;20194;-75
2022/01/14 01:58:09;;;;;;;6.93;3.20;;;31.70;99.90;;;;;;4973167;28;20676;-76
2022/01/14 02:00:36;;;;;;;5.15;4.20;;;31.20;99.90;;;;;;4972582;28;20274;-73
2022/01/14 02:03:04;;;;;;;8.68;4.50;;;31.60;99.90;;;;;;4973846;28;20289;-74
2022/01/14 02:05:32;;;;;;;7.85;4.43;;;31.80;99.90;;;;;;4973593;28;20175;-75
2022/01/14 02:08:00;;;;;;;6.80;4.50;;;31.80;99.90;;;;;;4973011;28;20183;-74
2022/01/14 02:10:28;;;;;;;6.07;4.20;;;31.30;99.90;;;;;;4973407;28;20172;-75
2022/01/14 02:12:56;;;;;;;6.28;4.63;;;31.60;99.90;;;;;;4973155;28;20234;-75
2022/01/14 02:16:12;;;;;;;5.80;4.80;;;31.30;99.90;;;;;;4973134;28;20180;-75
2022/01/14 02:18:31;;;;;;;6.50;5.28;;;31.60;99.90;;;;;;4970933;28;20299;-73
2022/01/14 02:23:53;;;;;;;4.70;3.80;;;31.90;99.90;;;;;;4973071;28;20190;-75
2022/01/14 02:26:22;;;;;;;6.97;5.27;;;32.10;99.90;;;;;;4973368;28;20187;-74
2022/01/14 02:28:51;;;;;;;7.75;4.72;;;32.30;99.90;;;;;;4972729;28;20194;-75
2022/01/14 02:31:19;;;;;;;8.05;5.30;;;32.90;99.90;;;;;;4972987;28;20180;-75
2022/01/14 02:33:47;;;;;;;6.85;5.68;;;32.70;99.90;;;;;;4972895;28;20187;-75
2022/01/14 02:36:16;;;;;;;7.37;5.47;;;31.90;99.90;;;;;;4975494;28;20222;-75
2022/01/14 02:38:45;;;;;;;5.93;5.00;;;31.60;99.90;;;;;;4975922;28;20257;-74
2022/01/14 02:41:15;;;;;;;7.03;5.40;;;31.80;99.90;;;;;;4978233;28;20283;-75
2022/01/14 02:43:42;;;;;;;7.72;4.95;;;32.30;99.90;;;;;;4996129;28;20702;-75
2022/01/14 02:46:10;;;;;;;6.90;4.75;;;33.00;99.90;;;;;;4996030;28;20273;-72
2022/01/14 02:48:38;;;;;;;7.72;4.22;;;32.90;99.90;;;;;;4996257;28;20179;-72
2022/01/14 02:51:14;;;;;;;10.35;5.32;;;32.00;99.90;;;;;;4996323;28;20190;-72
2022/01/14 02:53:55;;;;;;;7.23;4.70;;;31.50;99.90;;;;;;4996114;28;20170;-72
2022/01/14 02:56:30;;;;;;;9.80;5.60;;;31.50;99.90;;;;;;4981017;28;20183;-72
2022/01/14 02:59:00;;;;;;;4.97;4.53;;;31.00;99.90;;;;;;4995673;28;21059;-73
2022/01/14 03:01:28;;;;;;;6.80;5.20;;;30.80;99.90;;;;;;4996196;28;20628;-73
2022/01/14 03:03:59;;;;;;;7.93;5.20;;;30.80;99.90;;;;;;4996085;28;20190;-73
2022/01/14 03:06:28;;;;;;;9.70;5.10;;;30.90;99.90;;;;;;4995918;28;20217;-73
2022/01/14 03:09:00;;;;;;;8.00;5.37;;;31.00;99.90;;;;;;4995773;28;20300;-73
2022/01/14 03:11:37;;;;;;;9.67;5.60;;;30.90;99.90;;;;;;4996037;28;20179;-72
2022/01/14 03:14:06;;;;;;;8.33;4.73;;;31.60;99.90;;;;;;4995983;28;20182;-75
2022/01/14 03:16:39;;;;;;;5.87;4.50;;;31.30;99.90;;;;;;4995815;28;20264;-72
2022/01/14 03:19:15;;;;;;;5.40;4.67;;;31.10;99.90;;;;;;4995324;28;20233;-75
2022/01/14 03:21:43;;;;;;;5.67;4.57;;;31.40;99.90;;;;;;4978335;28;20187;-76
2022/01/14 03:26:52;;;;;;;6.97;4.88;;;31.60;99.90;;;;;;4995318;28;20193;-74
2022/01/14 03:29:20;;;;;;;6.83;4.87;;;31.40;99.90;;;;;;4977007;28;20573;-74
2022/01/14 03:31:48;;;;;;;8.80;4.60;;;31.30;99.90;;;;;;4995455;28;20553;-74
2022/01/14 03:34:16;;;;;;;8.00;5.70;;;31.40;99.90;;;;;;4995597;28;20182;-74
2022/01/14 03:36:44;;;;;;;8.48;5.40;;;31.30;99.90;;;;;;4995204;28;20218;-73
2022/01/14 03:39:12;;;;;;;6.43;5.05;;;31.40;99.90;;;;;;4995241;28;20221;-75
2022/01/14 03:41:40;;;;;;;5.15;4.60;;;31.60;99.90;;;;;;4995037;28;20175;-73
2022/01/14 03:44:08;;;;;;;5.35;4.55;;;31.60;99.90;;;;;;4995249;28;20233;-73
2022/01/14 03:46:36;;;;;;;4.83;4.17;;;31.80;99.90;;;;;;4977873;28;20182;-72
2022/01/14 03:49:04;;;;;;;6.30;3.23;;;31.70;99.90;;;;;;4995033;28;20214;-73
2022/01/14 03:51:31;;;;;;;6.53;2.50;;;31.70;99.90;;;;;;4994192;28;20178;-74
2022/01/14 03:54:00;;;;;;;4.85;2.25;;;31.50;99.90;;;;;;4995319;28;20182;-74
2022/01/14 03:56:27;;;;;;;6.10;1.90;;;31.60;99.90;;;;;;4994941;28;20547;-74
2022/01/14 03:58:55;;;;;;;9.17;2.37;;;31.30;99.90;;;;;;4994889;28;20245;-73
2022/01/14 04:01:23;;;;;;;7.47;2.07;;;31.40;99.90;;;;;;4977783;28;20706;-74
2022/01/14 04:03:50;;;;;;;5.40;2.27;;;31.60;99.90;;;;;;4995164;28;20190;-74
2022/01/14 04:06:19;;;;;;;5.13;2.47;;;31.10;99.90;;;;;;4994490;28;20195;-74
2022/01/14 04:08:46;;;;;;;4.30;2.42;;;30.80;99.90;;;;;;4994876;28;20201;-73
2022/01/14 04:11:14;;;;;;;5.75;2.30;;;30.60;99.90;;;;;;4995010;28;20182;-76
2022/01/14 04:13:52;;;;;;;6.07;2.60;;;30.70;99.90;;;;;;4995243;28;20637;-73
2022/01/14 04:16:21;;;;;;;6.53;2.90;;;30.80;99.90;;;;;;4994782;28;20240;-73
2022/01/14 04:18:52;;;;;;;8.23;3.13;;;30.80;99.90;;;;;;4994661;28;20221;-75
2022/01/14 04:21:20;;;;;;;8.40;3.20;;;30.90;99.90;;;;;;4977357;28;20190;-73
2022/01/14 04:23:47;;;;;;;8.13;3.33;;;30.80;99.90;;;;;;4976824;28;20663;-74
2022/01/14 04:26:15;;;;;;;8.03;3.73;;;30.70;99.90;;;;;;4994410;28;20712;-73
2022/01/14 04:28:42;;;;;;;5.30;2.83;;;31.00;99.90;;;;;;4994454;28;20178;-75
2022/01/14 04:31:10;;;;;;;6.87;3.33;;;31.10;99.90;;;;;;4994010;28;20182;-74
2022/01/14 04:33:38;;;;;;;7.77;2.50;;;30.90;99.90;;;;;;4993892;28;20273;-74
2022/01/14 04:36:06;;;;;;;8.07;3.33;;;30.70;99.90;;;;;;4976671;28;20532;-73
2022/01/14 04:38:34;;;;;;;7.07;2.87;;;30.50;99.90;;;;;;4993945;28;20225;-73
2022/01/14 04:41:02;;;;;;;7.13;2.87;;;30.30;99.90;;;;;;4994224;28;20186;-73
2022/01/14 04:43:30;;;;;;;6.17;2.33;;;30.30;99.90;;;;;;4994300;28;20171;-74
2022/01/14 04:48:26;;;;;;;9.07;3.47;;;30.30;99.90;;;;;;4994020;28;20191;-74
2022/01/14 04:50:55;;;;;;;6.50;3.27;;;30.10;99.90;;;;;;4994211;28;20193;-74
2022/01/14 04:53:23;;;;;;;6.03;2.90;;;30.00;99.90;;;;;;4976112;28;20190;-74
2022/01/14 04:55:52;;;;;;;8.03;2.77;;;30.00;99.90;;;;;;4994022;28;20647;-74
2022/01/14 04:58:19;;;;;;;4.10;2.47;;;29.80;99.90;;;;;;4993787;28;20305;-73
2022/01/14 05:00:47;;;;;;;8.80;3.10;;;29.80;99.90;;;;;;4993918;28;20185;-74
2022/01/14 05:03:15;;;;;;;10.47;3.17;;;29.70;99.90;;;;;;4993641;28;20179;-73
2022/01/14 05:05:45;;;;;;;6.03;2.93;;;29.50;99.90;;;;;;4993324;28;20273;-73
2022/01/14 05:08:18;;;;;;;11.53;3.00;;;29.40;99.90;;;;;;4976049;28;20225;-73
2022/01/14 05:11:02;;;;;;;7.93;3.20;;;29.30;99.90;;;;;;4993854;28;20201;-73
2022/01/14 05:13:30;;;;;;;7.63;3.00;;;29.20;99.90;;;;;;4993614;28;20656;-73
2022/01/14 05:15:58;;;;;;;8.77;2.30;;;29.10;99.90;;;;;;4993319;28;20202;-74
2022/01/14 05:18:25;;;;;;;9.20;2.50;;;29.00;99.90;;;;;;4993052;28;20214;-74
2022/01/14 05:20:53;;;;;;;7.63;2.70;;;28.90;99.90;;;;;;4993608;28;20182;-73
2022/01/14 05:23:21;;;;;;;10.30;2.30;;;28.80;99.90;;;;;;4993415;28;20178;-73
2022/01/14 05:25:48;;;;;;;6.07;2.03;;;28.70;99.90;;;;;;4993348;28;20541;-74
2022/01/14 05:28:16;;;;;;;6.70;2.30;;;28.70;99.90;;;;;;4975785;28;20525;-74
2022/01/14 05:30:43;;;;;;;4.23;2.03;;;28.60;99.90;;;;;;4993271;28;20182;-74
2022/01/14 05:33:11;;;;;;;5.40;2.27;;;28.50;99.90;;;;;;4975837;28;20269;-75
2022/01/14 05:35:38;;;;;;;9.27;2.60;;;28.80;99.90;;;;;;4993129;28;20648;-75
2022/01/14 05:38:05;;;;;;;7.50;1.90;;;29.20;99.90;;;;;;4992780;28;20237;-75
2022/01/14 05:40:33;;;;;;;7.83;2.33;;;29.40;99.90;;;;;;4993326;28;20179;-75
2022/01/14 05:43:00;;;;;;;7.60;2.27;;;29.40;99.90;;;;;;4993212;28;20222;-75
2022/01/14 05:45:28;;;;;;;14.40;3.03;;;29.50;99.90;;;;;;4993252;28;20178;-74
2022/01/14 05:47:55;;;;;;;6.97;2.03;;;29.50;99.90;;;;;;4992698;28;20187;-74
2022/01/14 05:50:25;;;;;;;8.03;2.07;;;29.10;99.90;;;;;;4975788;28;20179;-74
2022/01/14 05:52:52;;;;;;;6.30;2.27;;;28.80;99.90;;;;;;4992865;28;20592;-75
2022/01/14 05:55:21;;;;;;;6.70;2.23;;;28.80;99.90;;;;;;4993031;28;20206;-74
2022/01/14 05:57:49;;;;;;;7.13;1.73;;;28.60;99.90;;;;;;4992523;28;20174;-74
2022/01/14 06:00:20;;;;;;;8.43;2.20;;;28.40;99.90;;;;;;4992989;28;20206;-73
2022/01/14 06:02:48;;;;;;;6.53;1.80;;;28.20;99.90;;;;;;4992525;28;20202;-73
2022/01/14 06:05:17;;;;;;;7.23;1.73;;;28.20;99.90;;;;;;4992773;28;20711;-73
2022/01/14 06:07:45;;;;;;;4.67;1.70;;;28.20;99.90;;;;;;4992791;28;20214;-73
2022/01/14 06:10:13;;;;;;;6.80;1.80;;;28.10;99.90;;;;;;4992930;28;20253;-73
2022/01/14 06:12:41;;;;;;;14.00;2.80;;;28.10;99.90;;;;;;4975209;28;20203;-74
2022/01/14 06:15:08;;;;;;;9.17;1.93;;;28.00;99.90;;;;;;4992474;28;20655;-74
2022/01/14 06:17:36;;;;;;;9.23;2.27;;;27.80;99.90;;;;;;4992541;28;20273;-74
2022/01/14 06:20:04;;;;;;;13.60;2.27;;;27.80;99.90;;;;;;4992531;28;20214;-74
2022/01/14 06:22:31;;;;;;;7.77;2.40;;;27.80;99.90;;;;;;4975364;28;20182;-74
2022/01/14 06:25:00;;;;;;;7.87;2.60;;;28.00;99.90;;;;;;4992403;28;20193;-74
2022/01/14 06:27:28;;;;;;;8.30;2.43;;;28.10;99.90;;;;;;4992542;28;20229;-74
2022/01/14 06:29:55;;;;;;;6.17;2.00;;;28.30;99.90;;;;;;4992530;28;20640;-72
2022/01/14 06:32:22;;;;;;;9.27;2.63;;;29.00;99.90;;;;;;4992521;28;20210;-73
2022/01/14 06:34:49;;;;;;;5.80;1.83;;;29.10;99.90;;;;;;4992297;28;20691;-73
2022/01/14 06:37:17;;;;;;;6.97;2.33;;;29.00;99.90;;;;;;4992407;28;20222;-74
2022/01/14 06:39:45;;;;;;;10.00;2.30;;;28.80;99.90;;;;;;4992412;28;20223;-73
2022/01/14 06:42:12;;;;;;;6.63;1.73;;;28.40;99.90;;;;;;4992648;28;20178;-72
2022/01/14 06:44:40;;;;;;;6.40;2.10;;;28.20;99.90;;;;;;4992341;28;20201;-74
2022/01/14 06:47:07;;;;;;;12.57;2.47;;;28.10;99.90;;;;;;4992421;28;20210;-73
2022/01/14 06:49:35;;;;;;;9.70;2.70;;;28.00;99.90;;;;;;4992396;28;20182;-72
2022/01/14 06:52:02;;;;;;;6.97;2.10;;;28.20;99.90;;;;;;4992156;28;20190;-75
2022/01/14 06:54:29;;;;;;;11.20;2.40;;;27.90;99.90;;;;;;4991381;28;20195;-73
2022/01/14 06:56:57;;;;;;;13.37;2.73;;;27.70;99.90;;;;;;4992413;28;20631;-73
2022/01/14 06:59:24;;;;;;;13.50;2.67;;;27.80;99.90;;;;;;4992266;28;20210;-73
2022/01/14 07:01:53;;;;;;;5.87;2.00;;;27.70;99.90;;;;;;4992431;28;20206;-74
2022/01/14 07:04:20;;;;;;;9.77;1.70;;;27.70;99.90;;;;;;4991926;28;20193;-74
2022/01/14 07:06:48;;;;;;;6.57;2.07;;;28.00;99.90;;;;;;4992092;28;20663;-76
2022/01/14 07:09:15;;;;;;;8.37;1.73;;;28.20;99.90;;;;;;4973978;28;20216;-76
2022/01/14 07:11:47;;;;;;;7.33;1.90;;;28.50;99.90;;;;;;4991234;28;20662;-76
2022/01/14 07:14:14;;;;;;;9.10;1.80;;;28.50;99.90;;;;;;4992588;28;20541;-74
2022/01/14 07:16:42;;;;;;;6.57;2.13;;;28.50;99.90;;;;;;4993802;28;20179;-76
2022/01/14 07:19:09;;;;;;;4.70;1.80;;;28.40;99.90;;;;;;4992199;28;20261;-74
2022/01/14 07:21:38;;;;;;;10.10;3.13;;;28.10;99.90;;;;;;4974449;28;20302;-76
2022/01/14 07:24:06;;;;;;;7.77;1.80;;;27.90;99.90;;;;;;4974831;28;20198;-79
2022/01/14 07:26:33;;;;;;;7.57;1.77;;;27.60;99.90;;;;;;4999353;28;20254;-79
2022/01/14 07:29:01;;;;;;;10.63;2.17;;;27.50;99.90;;;;;;4999593;28;20202;-78
2022/01/14 07:31:28;;;;;;;15.87;2.70;;;27.40;99.90;;;;;;4981928;28;20197;-80
2022/01/14 07:33:56;;;;;;;8.23;2.20;;;27.20;99.90;;;;;;4998635;28;20273;-80
2022/01/14 07:36:23;;;;;;;6.70;1.60;;;27.20;99.90;;;;;;4999837;28;20222;-75
2022/01/14 07:38:51;;;;;;;11.97;2.87;;;27.10;99.90;;;;;;5000311;28;20213;-79
2022/01/14 07:41:18;;;;;;;6.43;1.90;;;27.10;99.90;;;;;;4999252;28;20274;-80
2022/01/14 07:43:48;;;;;;;12.87;2.70;;;27.10;99.90;;;;;;4999589;28;20183;-79
2022/01/14 07:46:16;;;;;;;9.37;2.87;;;27.00;99.90;;;;;;4999816;28;20233;-79
2022/01/14 07:48:43;;;;;;;6.63;2.73;;;27.10;99.90;;;;;;4999104;28;20183;-79
2022/01/14 07:51:11;;;;;;;7.80;2.57;;;27.20;99.90;;;;;;4999260;28;20609;-76
2022/01/14 07:53:40;;;;;;;7.67;2.57;;;27.30;99.90;;;;;;4998921;28;20644;-80
2022/01/14 07:56:12;;;;;;;6.43;2.23;;;27.30;99.90;;;;;;4999679;28;20552;-77
2022/01/14 07:58:41;;;;;;;8.83;1.70;;;27.20;99.90;;;;;;4998217;28;20214;-78
2022/01/14 08:01:09;;;;;;;5.30;1.93;;;27.10;99.90;;;;;;4997447;28;20197;-77
2022/01/14 08:03:37;;;;;;;6.43;1.67;;;27.20;99.90;;;;;;4998025;28;20190;-78
2022/01/14 08:06:04;;;;;;;7.67;1.90;;;27.10;99.90;;;;;;4998547;28;20220;-76
2022/01/14 08:08:32;;;;;;;11.73;2.37;;;27.20;99.90;;;;;;4998214;28;20724;-77
2022/01/14 08:10:59;;;;;;;6.77;2.33;;;27.30;99.90;;;;;;4979932;28;20546;-74
2022/01/14 08:13:27;;;;;;;8.77;2.73;;;27.50;99.90;;;;;;4980396;28;20183;-80
2022/01/14 08:15:55;;;;;;;11.60;2.00;;;27.70;99.90;;;;;;5000137;28;20183;-77
2022/01/14 08:18:23;;;;;;;8.53;1.93;;;28.00;99.90;;;;;;4999909;28;20206;-78
2022/01/14 08:20:50;;;;;;;6.73;1.77;;;28.00;99.90;;;;;;4998808;28;20233;-79
2022/01/14 08:23:19;;;;;;;7.60;2.37;;;27.70;99.90;;;;;;5000067;28;20221;-77
2022/01/14 08:25:47;;;;;;;8.10;1.90;;;27.60;99.90;;;;;;4999635;28;20187;-76
2022/01/14 08:28:14;;;;;;;7.13;2.10;;;27.60;99.90;;;;;;5001237;28;20187;-77
2022/01/14 08:30:41;;;;;;;10.87;2.20;;;27.70;99.90;;;;;;5017874;28;20202;-79
2022/01/14 08:33:09;;;;;;;7.27;2.07;;;27.70;99.90;;;;;;5017317;28;20185;-79
2022/01/14 08:35:36;;;;;;;7.90;1.70;;;27.60;99.90;;;;;;5000541;28;20187;-78
2022/01/14 08:38:03;;;;;;;10.47;1.97;;;27.40;99.90;;;;;;4999245;28;20225;-80
2022/01/14 08:40:31;;;;;;;5.30;1.90;;;27.30;99.90;;;;;;5001126;28;20186;-80
2022/01/14 08:42:58;;;;;;;6.87;2.47;;;27.30;99.90;;;;;;4982617;28;20198;-77
2022/01/14 08:45:26;;;;;;;5.53;1.80;;;27.20;99.90;;;;;;5000302;28;20171;-81
2022/01/14 08:47:54;;;;;;;12.50;2.43;;;27.10;99.90;;;;;;4999023;28;20174;-82
2022/01/14 08:50:35;;;;;;;8.20;2.63;;;27.00;99.90;;;;;;4999686;28;20190;-80
2022/01/14 08:53:05;;;;;;;5.67;1.60;;;26.80;99.90;;;;;;4981321;28;20185;-77
2022/01/14 08:55:34;;;;;;;9.27;2.40;;;26.70;99.90;;;;;;4999967;28;20647;-76
2022/01/14 08:58:03;;;;;;;6.10;1.70;;;26.70;99.90;;;;;;4998442;28;20183;-80
2022/01/14 09:00:31;;;;;;;11.40;2.10;;;26.60;99.90;;;;;;4998104;28;20210;-78
2022/01/14 09:02:58;;;;;;;13.20;1.80;;;26.60;99.90;;;;;;4979604;28;20183;-78
2022/01/14 09:05:26;;;;;;;6.60;1.90;;;26.60;99.90;;;;;;4997801;28;20210;-79
2022/01/14 09:07:53;;;;;;;7.23;1.70;;;26.60;99.90;;;;;;4979099;28;20186;-77
2022/01/14 09:10:21;;;;;;;8.63;2.37;;;26.50;99.90;;;;;;4996760;28;20194;-77
2022/01/14 09:12:49;;;;;;;7.23;1.67;;;26.40;99.90;;;;;;4979692;28;20200;-81
2022/01/14 09:15:16;;;;;;;8.03;2.13;;;26.40;99.90;;;;;;4997653;28;20186;-79
2022/01/14 09:17:47;;;;;;;9.53;2.20;;;26.30;99.90;;;;;;4997967;28;20206;-75
2022/01/14 09:20:15;;;;;;;8.70;2.13;;;26.20;99.90;;;;;;4997583;28;20305;-78
2022/01/14 09:22:49;;;;;;;10.70;2.10;;;26.10;99.90;;;;;;4998382;28;20183;-78
2022/01/14 09:25:19;;;;;;;16.73;2.77;;;26.00;99.90;;;;;;4995776;28;20735;-75
2022/01/14 09:27:49;;;;;;;10.23;2.07;;;26.00;99.90;;;;;;4997865;28;20174;-77
2022/01/14 09:30:16;;;;;;;13.07;1.93;;;25.90;99.90;;;;;;4977059;28;20182;-75
2022/01/14 09:32:44;;;;;;;8.47;2.17;;;25.90;99.90;;;;;;4994492;28;20190;-77
2022/01/14 09:35:13;;;;;;;10.63;2.70;;;25.80;99.90;;;;;;4994664;28;20217;-78
2022/01/14 09:37:44;;;;;;;7.10;2.30;;;25.70;99.90;;;;;;4976805;28;20306;-77
2022/01/14 09:40:14;;;;;;;12.07;2.23;;;25.70;99.90;;;;;;4994555;28;20232;-77
2022/01/14 09:42:43;;;;;;;8.03;2.23;;;25.60;99.90;;;;;;4977244;28;20258;-76
2022/01/14 09:45:12;;;;;;;10.23;2.17;;;25.50;99.90;;;;;;4994460;28;20186;-77
2022/01/14 09:47:42;;;;;;;5.40;1.93;;;25.50;99.90;;;;;;4993208;28;20719;-74
2022/01/14 09:50:10;;;;;;;7.20;2.33;;;25.40;99.90;;;;;;4997239;28;20178;-77
2022/01/14 09:52:38;;;;;;;8.17;2.37;;;25.40;99.90;;;;;;4981093;28;20206;-75
2022/01/14 09:55:06;;;;;;;9.03;2.17;;;25.40;99.90;;;;;;4994575;28;20194;-76
2022/01/14 09:57:33;;;;;;;8.73;2.27;;;25.40;99.90;;;;;;4995320;28;20229;-78
2022/01/14 10:00:02;;;;;;;6.83;2.53;;;25.30;99.90;;;;;;4995698;28;20222;-77
2022/01/14 10:02:38;;;;;;;11.07;2.10;;;25.30;99.90;;;;;;4994980;28;20205;-75
2022/01/14 10:05:11;;;;;;;5.03;2.10;;;25.20;99.90;;;;;;4994302;28;20567;-75
2022/01/14 10:07:38;;;;;;;10.17;2.40;;;25.20;99.90;;;;;;4993927;28;20258;-77
2022/01/14 10:10:23;;;;;;;6.40;2.20;;;25.20;99.90;;;;;;4994757;28;20178;-77
2022/01/14 10:12:51;;;;;;;16.27;2.37;;;25.10;99.90;;;;;;4994256;28;20198;-76
2022/01/14 10:15:19;;;;;;;11.27;3.07;;;25.00;99.90;;;;;;4995495;28;20524;-76
2022/01/14 10:17:47;;;;;;;8.13;2.40;;;24.90;99.90;;;;;;4996665;28;20712;-74
2022/01/14 10:20:17;;;;;;;9.23;2.30;;;24.90;99.90;;;;;;4994441;28;20226;-77
2022/01/14 10:22:49;;;;;;;7.37;2.67;;;24.70;99.90;;;;;;4994324;28;20226;-74
2022/01/14 10:25:21;;;;;;;6.90;2.47;;;24.70;99.90;;;;;;4994086;28;20181;-74
2022/01/14 10:27:53;;;;;;;10.40;2.60;;;24.60;99.90;;;;;;4993432;28;20522;-76
2022/01/14 10:30:31;;;;;;;15.40;3.30;;;24.50;99.90;;;;;;4993645;28;20301;-76
2022/01/14 10:33:03;;;;;;;10.37;2.53;;;24.50;99.90;;;;;;4992139;28;20743;-74
2022/01/14 10:35:36;;;;;;;10.97;2.77;;;24.50;99.90;;;;;;4976160;28;20189;-74
2022/01/14 10:38:09;;;;;;;5.67;2.10;;;24.40;99.90;;;;;;4996037;28;20230;-76
2022/01/14 10:40:42;;;;;;;8.53;2.27;;;24.30;99.90;;;;;;4975312;28;20192;-76
2022/01/14 10:43:12;;;;;;;11.47;2.33;;;24.20;99.90;;;;;;4994242;28;20179;-76
2022/01/14 10:45:40;;;;;;;10.57;2.90;;;24.20;99.90;;;;;;4995112;28;20186;-77
2022/01/14 10:48:11;;;;;;;9.73;2.67;;;24.10;99.90;;;;;;4995266;28;20178;-77
2022/01/14 10:50:48;;;;;;;13.03;3.30;;;24.00;99.90;;;;;;4995584;28;20543;-78
2022/01/14 10:53:24;;;;;;;6.10;2.90;;;23.90;99.90;;;;;;4994993;28;20186;-78
2022/01/14 10:55:53;;;;;;;8.33;2.60;;;23.90;99.90;;;;;;4995146;28;20186;-78
2022/01/14 10:58:33;;;;;;;7.97;2.80;;;23.80;99.90;;;;;;4993935;28;20244;-77
2022/01/14 11:01:03;;;;;;;13.60;2.47;;;23.70;99.90;;;;;;4998943;28;20230;-77
2022/01/14 11:03:38;;;;;;;10.07;3.03;;;23.70;99.90;;;;;;4998078;28;20733;-77
2022/01/14 11:06:19;;;;;;;8.63;2.60;;;23.60;99.90;;;;;;4980514;28;20273;-75
2022/01/14 11:08:48;;;;;;;9.47;2.93;;;23.60;99.90;;;;;;4980384;28;20196;-76
2022/01/14 11:11:16;;;;;;;11.50;2.37;;;23.60;99.90;;;;;;4998112;28;20213;-76
2022/01/14 11:13:50;;;;;;;14.40;2.90;;;23.50;99.90;;;;;;4997980;28;20213;-78
2022/01/14 11:16:18;;;;;;;9.30;2.70;;;23.50;99.90;;;;;;4998570;28;20177;-77
2022/01/14 11:18:47;;;;;;;12.27;2.97;;;23.40;99.90;;;;;;4997882;28;20209;-78
2022/01/14 11:24:03;;;;;;;9.23;3.07;;;23.40;99.90;;;;;;4998487;28;20181;-78
2022/01/14 11:26:37;;;;;;;6.40;2.57;;;23.30;99.90;;;;;;4997852;28;20660;-77
2022/01/14 11:29:09;;;;;;;8.87;3.20;;;23.30;99.90;;;;;;4997517;28;20189;-77
2022/01/14 11:31:38;;;;;;;13.07;3.27;;;23.30;99.90;;;;;;4979678;28;20192;-78
2022/01/14 11:34:08;;;;;;;15.10;2.83;;;23.30;99.90;;;;;;4997374;28;20186;-77
2022/01/14 11:36:58;;;;;;;9.30;2.60;;;23.20;99.90;;;;;;4996820;28;20230;-78
2022/01/14 11:39:31;;;;;;;10.03;3.07;;;23.20;99.90;;;;;;4997564;28;20311;-77
2022/01/14 11:42:03;;;;;;;9.30;2.80;;;23.10;99.90;;;;;;4997859;28;20213;-77
2022/01/14 11:44:58;;;;;;;8.47;3.27;;;23.10;99.90;;;;;;4979742;28;20194;-76
2022/01/14 11:47:28;;;;;;;8.97;3.77;;;23.00;99.90;;;;;;4980076;28;20699;-77
2022/01/14 11:49:57;;;;;;;10.47;3.30;;;23.00;99.90;;;;;;4997067;28;20178;-77
2022/01/14 11:52:44;;;;;;;10.73;3.17;;;23.00;99.90;;;;;;4996500;28;20185;-76
2022/01/14 11:55:23;;;;;;;11.43;3.13;;;23.00;99.90;;;;;;4996884;28;20192;-77
2022/01/14 11:58:12;;;;;;;8.63;2.80;;;23.00;99.90;;;;;;4996487;28;20178;-76
2022/01/14 12:00:42;;;;;;;12.13;2.67;;;22.90;99.90;;;;;;4996439;28;20186;-76
2022/01/14 12:03:17;;;;;;;15.70;3.13;;;23.00;99.90;;;;;;4996431;28;20531;-78
2022/01/14 12:06:07;;;;;;;6.73;2.80;;;22.90;99.90;;;;;;4996351;28;20181;-76
2022/01/14 12:08:42;;;;;;;10.57;3.20;;;22.90;99.90;;;;;;4996383;28;20185;-78
2022/01/14 12:11:09;;;;;;;10.97;3.17;;;22.90;99.90;;;;;;4995540;28;20172;-76
2022/01/14 12:13:54;;;;;;;8.70;3.40;;;22.80;99.90;;;;;;4996306;28;20182;-77
2022/01/14 12:19:02;;;;;;;13.80;3.57;;;22.70;99.90;;;;;;4998154;28;20570;-77
2022/01/14 12:21:39;;;;;;;15.70;3.27;;;22.70;99.90;;;;;;4979936;28;20240;-76
2022/01/14 12:24:31;;;;;;;9.80;2.90;;;22.70;99.90;;;;;;4996782;28;20179;-76
2022/01/14 12:27:03;;;;;;;9.40;3.50;;;22.70;99.90;;;;;;4985965;28;20205;-77
2022/01/14 12:29:39;;;;;;;11.70;3.20;;;22.60;99.90;;;;;;4997030;28;20632;-78
2022/01/14 12:32:11;;;;;;;10.70;3.43;;;22.60;99.90;;;;;;4996906;28;20237;-77
2022/01/14 12:34:59;;;;;;;10.20;3.50;;;22.60;99.90;;;;;;4997214;28;20620;-76
2022/01/14 12:37:34;;;;;;;9.73;3.30;;;22.50;99.90;;;;;;4996578;28;20682;-76
2022/01/14 12:40:23;;;;;;;8.40;3.30;;;22.50;99.90;;;;;;4996837;28;20550;-77
2022/01/14 12:42:57;;;;;;;14.37;3.53;;;22.50;99.90;;;;;;4979344;28;20216;-77
2022/01/14 12:45:31;;;;;;;12.93;3.60;;;22.50;99.90;;;;;;4996648;28;20184;-77
2022/01/14 12:48:33;;;;;;;9.23;3.37;;;22.50;99.90;;;;;;4997008;28;20514;-76
2022/01/14 12:51:16;;;;;;;14.20;3.80;;;22.50;99.90;;;;;;4992598;28;20279;-77
2022/01/14 12:53:53;;;;;;;12.47;3.47;;;22.50;99.90;;;;;;4980709;28;20185;-77
2022/01/14 12:56:23;;;;;;;8.93;3.07;;;22.50;99.90;;;;;;4996264;28;20191;-76
2022/01/14 12:58:59;;;;;;;7.40;3.50;;;22.50;99.90;;;;;;4978792;28;20216;-77
2022/01/14 13:01:29;;;;;;;8.17;3.30;;;22.60;99.90;;;;;;4995976;28;20185;-77
2022/01/14 13:04:04;;;;;;;12.20;4.10;;;22.60;99.90;;;;;;4978817;28;20189;-77
2022/01/14 13:06:51;;;;;;;11.10;3.00;;;22.60;99.90;;;;;;4996359;28;20546;-77
2022/01/14 13:09:25;;;;;;;5.57;3.20;;;22.60;99.90;;;;;;4995998;28;20193;-78
2022/01/14 13:12:03;;;;;;;15.17;3.07;;;22.60;99.90;;;;;;4978846;28;20635;-78
2022/01/14 13:14:39;;;;;;;12.77;3.30;;;22.60;99.90;;;;;;4996282;28;20183;-77
2022/01/14 13:17:15;;;;;;;12.27;3.90;;;22.60;99.90;;;;;;4996368;28;20170;-78
2022/01/14 13:19:47;;;;;;;14.83;4.00;;;22.50;99.90;;;;;;4996438;28;20213;-78
2022/01/14 13:22:17;;;;;;;15.83;5.03;;;22.50;99.90;;;;;;4995927;28;20559;-78
2022/01/14 13:24:49;;;;;;;10.67;3.50;;;22.50;99.90;;;;;;4995022;28;20642;-76
2022/01/14 13:27:20;;;;;;;8.77;3.27;;;22.40;99.90;;;;;;4995142;28;20201;-78